Quail Heights, Florida
Current Conditions -  °F | °C
As of 6:53 PM on Sunday 25 Jan 2015 (Local Time) from KTMB Reporting Station
Clear Clear  
Wind Chill: 59°   Ceiling: Unl
Heat Index: 59°   Visibility: 10mi
Dew Point: 46°   Wind: 3mph
Humidity: 62%   Direction: 320°NW
Pressure: 30.03"   Gusts: NA
Location:  25.6122°N, 80.3488°W
Report Text: KTMB 252353Z 32003KT 10SM CLR 15/08 A3003 RMK AO2 SLP169 T01500078 10206 20150 53008
Loading
Personal Weather Stations






























Interactive Weather Map New forecast layout! Learn more

10-Day Weather Forecast

Advertisements
Track Severe Weather on mobile